Time,TemperatureF,DewpointF,PressureIn,WindDirection,WindDirectionDegrees,WindSpeedMPH,WindSpeedGustMPH,Humidity,HourlyPrecipIn,Conditions,Clouds,dailyrainin,SoftwareType,DateUTC
2013-04-26 00:02:00,37.4,28.5,29.20,SE,135,5.8,5.8,70,0.00,RA,,0.00,WeatherDisplay:10.37,2013-04-26 05:02:00,
2013-04-26 00:07:00,37.4,28.5,29.19,SE,135,5.8,5.8,70,0.00,RA,,0.00,WeatherDisplay:10.37,2013-04-26 05:07:00,
2013-04-26 00:12:00,37.0,28.5,29.19,SE,135,3.5,3.5,71,0.00,CLR,,0.00,WeatherDisplay:10.37,2013-04-26 05:12:00,
2013-04-26 00:17:00,37.2,28.7,29.19,SE,135,4.6,4.6,71,0.00,CLR,,0.00,WeatherDisplay:10.37,2013-04-26 05:17:00,
2013-04-26 00:22:00,37.4,28.5,29.18,SE,135,5.8,5.8,70,0.00,CLR,,0.00,WeatherDisplay:10.37,2013-04-26 05:22:00,
2013-04-26 00:27:00,37.8,28.5,29.18,SE,135,5.8,5.8,69,0.00,CLR,,0.00,WeatherDisplay:10.37,2013-04-26 05:27:00,
2013-04-26 00:32:00,37.9,28.7,29.18,SE,135,5.8,5.8,69,0.00,CLR,,0.00,WeatherDisplay:10.37,2013-04-26 05:32:00,
2013-04-26 00:37:00,37.9,28.7,29.18,SE,135,4.6,4.6,69,0.00,CLR,,0.00,WeatherDisplay:10.37,2013-04-26 05:37:00,
2013-04-26 00:42:00,37.9,28.3,29.18,SE,135,4.6,4.6,68,0.00,CLR,,0.00,WeatherDisplay:10.37,2013-04-26 05:42:00,
2013-04-26 00:47:00,37.9,28.3,29.18,East,90,3.5,3.5,68,0.00,CLR,,0.00,WeatherDisplay:10.37,2013-04-26 05:47:00,
2013-04-26 00:52:00,37.8,28.5,29.18,East,90,3.5,3.5,69,0.00,CLR,,0.00,WeatherDisplay:10.37,2013-04-26 05:52:00,
2013-04-26 00:57:00,37.8,28.5,29.18,East,90,4.6,4.6,69,0.00,CLR,,0.00,WeatherDisplay:10.37,2013-04-26 05:57:00,
2013-04-26 01:02:00,37.9,28.3,29.18,East,90,2.3,2.3,68,0.00,CLR,,0.00,WeatherDisplay:10.37,2013-04-26 06:02:00,
2013-04-26 01:07:00,37.9,28.3,29.18,East,90,2.3,2.3,68,0.00,CLR,,0.00,WeatherDisplay:10.37,2013-04-26 06:07:00,
2013-04-26 01:12:00,38.5,28.1,29.18,East,90,3.5,3.5,66,0.00,CLR,,0.00,WeatherDisplay:10.37,2013-04-26 06:12:00,
2013-04-26 01:17:00,38.3,28.3,29.18,SE,135,4.6,4.6,67,0.00,CLR,,0.00,WeatherDisplay:10.37,2013-04-26 06:17:00,
2013-04-26 01:22:00,38.3,28.3,29.18,NE,45,3.5,3.5,67,0.00,CLR,,0.00,WeatherDisplay:10.37,2013-04-26 06:22:00,
2013-04-26 01:27:00,38.1,28.1,29.18,SE,135,3.5,3.5,67,0.00,CLR,,0.00,WeatherDisplay:10.37,2013-04-26 06:27:00,
2013-04-26 01:32:00,37.9,28.0,29.18,SE,135,5.8,5.8,67,0.00,CLR,,0.00,WeatherDisplay:10.37,2013-04-26 06:32:00,
2013-04-26 01:37:00,37.6,28.0,29.17,SE,135,3.8,3.8,68,0.00,CLR,,0.00,WeatherDisplay:10.37,2013-04-26 06:37:00,
2013-04-26 01:42:00,37.6,28.3,29.18,SE,135,3.5,3.5,69,0.00,CLR,,0.00,WeatherDisplay:10.37,2013-04-26 06:42:00,
2013-04-26 01:47:00,37.6,28.3,29.18,East,90,3.5,3.5,69,0.00,CLR,,0.00,WeatherDisplay:10.37,2013-04-26 06:47:00,
2013-04-26 01:52:00,37.6,28.3,29.18,SE,135,5.8,5.8,69,0.00,CLR,,0.00,WeatherDisplay:10.37,2013-04-26 06:52:00,
2013-04-26 01:57:00,37.4,28.5,29.17,SE,135,4.6,4.6,70,0.00,CLR,,0.00,WeatherDisplay:10.37,2013-04-26 06:57:00,
2013-04-26 02:02:00,37.6,28.3,29.17,SE,135,3.5,3.5,69,0.00,CLR,,0.00,WeatherDisplay:10.37,2013-04-26 07:02:00,
2013-04-26 02:07:00,37.6,28.3,29.18,SE,135,3.5,3.5,69,0.00,CLR,,0.00,WeatherDisplay:10.37,2013-04-26 07:07:00,
2013-04-26 02:12:00,38.3,28.3,29.17,East,90,4.6,4.6,67,0.00,CLR,,0.00,WeatherDisplay:10.37,2013-04-26 07:12:00,
2013-04-26 02:17:00,38.8,28.1,29.17,SE,135,3.5,3.5,65,0.00,CLR,,0.00,WeatherDisplay:10.37,2013-04-26 07:17:00,
2013-04-26 02:22:00,39.2,28.0,29.17,East,90,3.5,3.5,64,0.00,CLR,,0.00,WeatherDisplay:10.37,2013-04-26 07:22:00,
2013-04-26 02:27:00,39.2,27.7,29.17,ESE,112,3.5,3.5,63,0.00,CLR,,0.00,WeatherDisplay:10.37,2013-04-26 07:27:00,
2013-04-26 02:32:00,39.4,27.8,29.17,SE,135,3.5,3.5,63,0.00,CLR,,0.00,WeatherDisplay:10.37,2013-04-26 07:32:00,
2013-04-26 02:37:00,39.6,28.0,29.16,SE,135,5.8,5.8,63,0.00,CLR,,0.00,WeatherDisplay:10.37,2013-04-26 07:37:00,
2013-04-26 02:42:00,39.4,27.8,29.16,SE,135,5.8,5.8,63,0.00,CLR,,0.00,WeatherDisplay:10.37,2013-04-26 07:42:00,
2013-04-26 02:47:00,39.0,27.9,29.16,SE,135,3.5,3.5,64,0.00,CLR,,0.00,WeatherDisplay:10.37,2013-04-26 07:47:00,
2013-04-26 02:52:00,38.8,28.1,29.17,SE,135,3.5,3.5,65,0.00,CLR,,0.00,WeatherDisplay:10.37,2013-04-26 07:52:00,
2013-04-26 02:57:00,38.8,28.1,29.17,ESE,112,3.8,3.8,65,0.00,CLR,,0.00,WeatherDisplay:10.37,2013-04-26 07:57:00,
2013-04-26 03:02:00,39.0,27.9,29.16,East,90,5.8,5.8,64,0.00,CLR,,0.00,WeatherDisplay:10.37,2013-04-26 08:02:00,
2013-04-26 03:07:00,39.0,27.9,29.15,East,90,5.8,5.8,64,0.00,CLR,,0.00,WeatherDisplay:10.37,2013-04-26 08:07:00,
2013-04-26 03:12:00,39.9,27.5,29.15,SE,135,8.1,8.1,61,0.00,CLR,,0.00,WeatherDisplay:10.37,2013-04-26 08:12:00,
2013-04-26 03:17:00,39.9,27.1,29.14,SE,135,6.9,6.9,60,0.00,CLR,,0.00,WeatherDisplay:10.37,2013-04-26 08:17:00,
2013-04-26 03:22:00,40.1,27.3,29.13,NE,45,9.2,9.2,60,0.00,CLR,,0.00,WeatherDisplay:10.37,2013-04-26 08:22:00,
2013-04-26 03:27:00,40.1,27.3,29.13,SE,135,9.2,9.2,60,0.00,CLR,,0.00,WeatherDisplay:10.37,2013-04-26 08:27:00,
2013-04-26 03:32:00,40.3,27.1,29.12,SE,135,8.1,8.1,59,0.00,CLR,,0.00,WeatherDisplay:10.37,2013-04-26 08:32:00,
2013-04-26 03:37:00,40.5,27.2,29.12,East,90,9.2,9.2,59,0.00,CLR,,0.00,WeatherDisplay:10.37,2013-04-26 08:37:00,
2013-04-26 03:42:00,40.1,27.7,29.12,SSE,158,9.2,9.2,61,0.00,CLR,,0.00,WeatherDisplay:10.37,2013-04-26 08:42:00,
2013-04-26 03:47:00,39.4,28.2,29.12,SE,135,10.4,10.4,64,0.00,CLR,,0.00,WeatherDisplay:10.37,2013-04-26 08:47:00,
2013-04-26 03:52:00,38.7,29.4,29.12,SE,135,10.4,10.4,69,0.00,CLR,,0.00,WeatherDisplay:10.37,2013-04-26 08:52:00,
2013-04-26 03:57:00,39.4,28.6,29.11,SE,135,13.8,13.8,65,0.00,CLR,,0.00,WeatherDisplay:10.37,2013-04-26 08:57:00,
2013-04-26 04:02:00,39.2,28.8,29.11,SE,135,11.5,11.5,66,0.00,CLR,,0.00,WeatherDisplay:10.37,2013-04-26 09:02:00,
2013-04-26 04:07:00,40.1,28.1,29.11,SE,135,19.6,19.6,62,0.00,CLR,,0.00,WeatherDisplay:10.37,2013-04-26 09:07:00,
2013-04-26 04:12:00,40.5,28.5,29.12,South,180,13.8,13.8,62,0.00,CLR,,0.00,WeatherDisplay:10.37,2013-04-26 09:12:00,
2013-04-26 04:17:00,40.1,28.9,29.12,South,180,12.1,12.1,64,0.00,CLR,,0.00,WeatherDisplay:10.37,2013-04-26 09:17:00,
2013-04-26 04:22:00,39.4,29.3,29.11,SSE,158,10.4,10.4,67,0.00,CLR,,0.00,WeatherDisplay:10.37,2013-04-26 09:22:00,
2013-04-26 04:27:00,39.0,29.3,29.11,SE,135,11.5,11.5,68,0.00,CLR,,0.00,WeatherDisplay:10.37,2013-04-26 09:27:00,
2013-04-26 04:32:00,39.2,29.9,29.11,SE,135,10.4,10.4,69,0.00,CLR,,0.00,WeatherDisplay:10.37,2013-04-26 09:32:00,
2013-04-26 04:37:00,38.7,30.1,29.12,SSE,158,8.1,8.1,71,0.00,CLR,,0.00,WeatherDisplay:10.37,2013-04-26 09:37:00,
2013-04-26 04:42:00,39.0,30.1,29.12,SE,135,8.1,8.1,70,0.00,CLR,,0.00,WeatherDisplay:10.37,2013-04-26 09:42:00,
2013-04-26 04:47:00,39.2,29.9,29.12,SE,135,8.1,8.1,69,0.00,CLR,,0.00,WeatherDisplay:10.37,2013-04-26 09:47:00,
2013-04-26 04:52:00,39.2,30.2,29.13,SE,135,8.1,8.1,70,0.00,CLR,,0.00,WeatherDisplay:10.37,2013-04-26 09:52:00,
2013-04-26 04:57:00,39.2,30.6,29.13,South,180,2.3,0.0,71,0.00,CLR,,0.00,WeatherDisplay:10.37,2013-04-26 09:57:00,
2013-04-26 05:02:00,39.2,30.6,29.14,North,0,1.1,1.1,71,0.00,CLR,,0.00,WeatherDisplay:10.37,2013-04-26 10:02:00,
2013-04-26 05:07:00,39.2,30.6,29.13,North,0,1.1,1.1,71,0.00,CLR,,0.00,WeatherDisplay:10.37,2013-04-26 10:07:00,
2013-04-26 05:12:00,41.4,29.3,29.12,SE,135,10.4,10.4,62,0.00,CLR,,0.00,WeatherDisplay:10.37,2013-04-26 10:12:00,
2013-04-26 05:17:00,41.5,29.9,29.11,SE,135,15.0,15.0,63,0.00,CLR,,0.00,WeatherDisplay:10.37,2013-04-26 10:17:00,
2013-04-26 05:22:00,41.0,30.5,29.11,SE,135,15.0,15.0,66,0.00,CLR,,0.00,WeatherDisplay:10.37,2013-04-26 10:22:00,
2013-04-26 05:27:00,40.5,30.0,29.12,South,180,15.0,15.0,66,0.00,CLR,,0.00,WeatherDisplay:10.37,2013-04-26 10:27:00,
2013-04-26 05:32:00,39.6,30.6,29.12,South,180,8.1,8.1,70,0.00,CLR,,0.00,WeatherDisplay:10.37,2013-04-26 10:32:00,
2013-04-26 05:37:00,40.5,30.4,29.13,South,180,9.8,9.8,67,0.00,CLR,,0.00,WeatherDisplay:10.37,2013-04-26 10:37:00,
2013-04-26 05:42:00,40.3,30.6,29.13,SSE,158,8.1,8.1,68,0.00,CLR,,0.00,WeatherDisplay:10.37,2013-04-26 10:42:00,
2013-04-26 05:47:00,39.7,30.4,29.13,SSE,158,10.4,10.4,69,0.00,CLR,,0.00,WeatherDisplay:10.37,2013-04-26 10:47:00,
2013-04-26 05:52:00,40.1,30.4,29.13,South,180,9.2,9.2,68,0.00,CLR,,0.00,WeatherDisplay:10.37,2013-04-26 10:52:00,
2013-04-26 05:57:00,40.5,30.7,29.14,SE,135,9.2,9.2,68,0.00,CLR,,0.00,WeatherDisplay:10.37,2013-04-26 10:57:00,
2013-04-26 06:02:00,40.1,30.4,29.13,SE,135,8.1,8.1,68,0.00,CLR,,0.00,WeatherDisplay:10.37,2013-04-26 11:02:00,
2013-04-26 06:07:00,38.8,30.6,29.13,SE,135,8.1,8.1,72,0.00,CLR,,0.00,WeatherDisplay:10.37,2013-04-26 11:07:00,
2013-04-26 06:12:00,37.8,30.5,29.13,SE,135,8.3,8.3,75,0.00,CLR,,0.00,WeatherDisplay:10.37,2013-04-26 11:12:00,
2013-04-26 06:17:00,37.9,30.4,29.12,SE,135,8.1,8.1,74,0.00,CLR,,0.00,WeatherDisplay:10.37,2013-04-26 11:17:00,
2013-04-26 06:22:00,37.4,31.5,29.12,SE,135,10.4,10.4,79,0.00,CLR,,0.00,WeatherDisplay:10.37,2013-04-26 11:22:00,
2013-04-26 06:27:00,37.6,31.3,29.11,SSE,158,13.8,13.8,78,0.00,CLR,,0.00,WeatherDisplay:10.37,2013-04-26 11:27:00,
2013-04-26 06:32:00,38.7,32.1,29.11,South,180,17.3,17.3,77,0.00,CLR,,0.00,WeatherDisplay:10.37,2013-04-26 11:32:00,
2013-04-26 06:37:00,39.6,31.6,29.10,SE,135,21.9,21.9,73,0.00,CLR,,0.00,WeatherDisplay:10.37,2013-04-26 11:37:00,
2013-04-26 06:42:00,38.7,32.1,29.09,SE,135,19.6,19.6,77,0.00,CLR,,0.00,WeatherDisplay:10.37,2013-04-26 11:42:00,
2013-04-26 06:47:00,39.4,32.4,29.09,SE,135,23.0,23.0,76,0.00,CLR,,0.00,WeatherDisplay:10.37,2013-04-26 11:47:00,
2013-04-26 06:52:00,39.9,32.6,29.07,SE,135,23.0,23.0,75,0.00,CLR,,0.00,WeatherDisplay:10.37,2013-04-26 11:52:00,
2013-04-26 06:57:00,39.9,32.6,29.09,South,180,21.9,21.9,75,0.00,CLR,,0.00,WeatherDisplay:10.37,2013-04-26 11:57:00,
2013-04-26 07:02:00,40.6,32.7,29.07,SE,135,23.0,23.0,73,0.01,RA,,0.01,WeatherDisplay:10.37,2013-04-26 12:02:00,
2013-04-26 07:07:00,41.4,32.7,29.08,South,180,26.5,26.5,71,0.02,RA,,0.02,WeatherDisplay:10.37,2013-04-26 12:07:00,
2013-04-26 07:12:00,41.2,32.5,29.06,SE,135,25.3,25.3,71,0.02,RA,,0.02,WeatherDisplay:10.37,2013-04-26 12:12:00,
2013-04-26 07:17:00,41.4,32.3,29.07,South,180,23.0,23.0,70,0.02,CLR,,0.02,WeatherDisplay:10.37,2013-04-26 12:17:00,
2013-04-26 07:22:00,42.8,32.6,29.07,SE,135,21.9,21.9,67,0.02,CLR,,0.02,WeatherDisplay:10.37,2013-04-26 12:22:00,
2013-04-26 07:27:00,43.0,32.8,29.07,South,180,23.0,23.0,67,0.02,CLR,,0.02,WeatherDisplay:10.37,2013-04-26 12:27:00,
2013-04-26 07:32:00,43.3,32.7,29.06,South,180,26.5,26.5,66,0.02,CLR,,0.02,WeatherDisplay:10.37,2013-04-26 12:32:00,
2013-04-26 07:37:00,42.1,32.6,29.06,SE,135,21.9,21.9,69,0.02,CLR,,0.02,WeatherDisplay:10.37,2013-04-26 12:37:00,
2013-04-26 07:42:00,42.6,32.8,29.06,South,180,19.6,19.6,68,0.02,CLR,,0.02,WeatherDisplay:10.37,2013-04-26 12:42:00,
2013-04-26 07:47:00,41.7,32.7,29.07,SE,135,17.3,17.3,70,0.02,CLR,,0.02,WeatherDisplay:10.37,2013-04-26 12:47:00,
2013-04-26 07:52:00,42.4,33.0,29.06,South,180,17.3,17.3,69,0.02,CLR,,0.02,WeatherDisplay:10.37,2013-04-26 12:52:00,
2013-04-26 07:57:00,41.7,33.0,29.07,SSE,158,13.0,13.0,71,0.02,CLR,,0.02,WeatherDisplay:10.37,2013-04-26 12:57:00,
2013-04-26 08:02:00,42.3,33.5,29.08,South,180,13.8,13.8,71,0.01,CLR,,0.02,WeatherDisplay:10.37,2013-04-26 13:02:00,
2013-04-26 08:07:00,43.0,33.5,29.07,South,180,17.3,17.3,69,0.00,CLR,,0.02,WeatherDisplay:10.37,2013-04-26 13:07:00,
2013-04-26 08:12:00,45.0,33.5,29.07,South,180,15.0,15.0,64,0.00,CLR,,0.02,WeatherDisplay:10.37,2013-04-26 13:12:00,
2013-04-26 08:17:00,45.7,33.8,29.08,South,180,12.7,12.7,63,0.00,CLR,,0.02,WeatherDisplay:10.37,2013-04-26 13:17:00,
2013-04-26 08:22:00,46.9,34.6,29.08,South,180,12.7,12.7,62,0.00,CLR,,0.02,WeatherDisplay:10.37,2013-04-26 13:22:00,
2013-04-26 08:27:00,47.1,34.4,29.08,SSE,158,10.4,10.4,61,0.00,CLR,,0.02,WeatherDisplay:10.37,2013-04-26 13:27:00,
2013-04-26 08:32:00,48.2,35.0,29.09,South,180,13.7,13.7,60,0.00,CLR,,0.02,WeatherDisplay:10.37,2013-04-26 13:32:00,
2013-04-26 08:37:00,49.1,34.9,29.09,South,180,17.3,17.3,58,0.00,CLR,,0.02,WeatherDisplay:10.37,2013-04-26 13:37:00,
2013-04-26 08:42:00,48.2,34.5,29.09,South,180,11.5,11.5,59,0.00,CLR,,0.02,WeatherDisplay:10.37,2013-04-26 13:42:00,
2013-04-26 08:47:00,48.2,34.5,29.08,SSE,158,13.8,13.8,59,0.00,CLR,,0.02,WeatherDisplay:10.37,2013-04-26 13:47:00,
2013-04-26 08:52:00,48.4,34.7,29.09,SSE,158,11.5,11.5,59,0.00,CLR,,0.02,WeatherDisplay:10.37,2013-04-26 13:52:00,
2013-04-26 08:57:00,48.9,35.2,29.08,WSW,248,19.6,19.6,59,0.00,CLR,,0.02,WeatherDisplay:10.37,2013-04-26 13:57:00,
2013-04-26 09:02:00,49.1,34.5,29.08,South,180,12.7,12.7,57,0.00,CLR,,0.02,WeatherDisplay:10.37,2013-04-26 14:02:00,
2013-04-26 09:07:00,49.3,35.1,29.08,South,180,17.3,17.3,58,0.00,CLR,,0.02,WeatherDisplay:10.37,2013-04-26 14:07:00,
2013-04-26 09:12:00,50.4,34.8,29.09,South,180,19.6,19.6,55,0.00,CLR,,0.02,WeatherDisplay:10.37,2013-04-26 14:12:00,
2013-04-26 09:17:00,50.7,35.1,29.09,South,180,15.0,15.0,55,0.00,CLR,,0.02,WeatherDisplay:10.37,2013-04-26 14:17:00,
2013-04-26 09:22:00,51.6,35.0,29.08,South,180,25.3,25.3,53,0.00,CLR,,0.02,WeatherDisplay:10.37,2013-04-26 14:22:00,
2013-04-26 09:27:00,52.0,34.9,29.08,South,180,23.0,23.0,52,0.00,CLR,,0.02,WeatherDisplay:10.37,2013-04-26 14:27:00,
2013-04-26 09:32:00,52.2,35.1,29.09,South,180,26.5,26.5,52,0.00,CLR,,0.02,WeatherDisplay:10.37,2013-04-26 14:32:00,
2013-04-26 09:37:00,52.5,34.9,29.08,South,180,19.6,19.6,51,0.00,CLR,,0.02,WeatherDisplay:10.37,2013-04-26 14:37:00,
2013-04-26 09:42:00,53.4,35.7,29.08,South,180,17.3,17.3,51,0.00,CLR,,0.02,WeatherDisplay:10.37,2013-04-26 14:42:00,
2013-04-26 09:47:00,53.8,36.1,29.08,SW,225,20.7,20.7,51,0.00,CLR,,0.02,WeatherDisplay:10.37,2013-04-26 14:47:00,
2013-04-26 09:52:00,55.0,37.2,29.08,South,180,24.2,24.2,51,0.00,CLR,,0.02,WeatherDisplay:10.37,2013-04-26 14:52:00,
2013-04-26 09:57:00,55.2,36.9,29.09,WSW,248,25.3,25.3,50,0.00,CLR,,0.02,WeatherDisplay:10.37,2013-04-26 14:57:00,
2013-04-26 10:02:00,55.6,37.2,29.09,South,180,21.9,21.9,50,0.00,CLR,,0.02,WeatherDisplay:10.37,2013-04-26 15:02:00,
2013-04-26 10:07:00,55.9,37.6,29.09,South,180,17.3,17.3,50,0.00,CLR,,0.02,WeatherDisplay:10.37,2013-04-26 15:07:00,
2013-04-26 10:12:00,56.3,37.4,29.08,South,180,19.6,19.6,49,0.00,CLR,,0.02,WeatherDisplay:10.37,2013-04-26 15:12:00,
2013-04-26 10:17:00,56.5,37.5,29.08,South,180,19.6,19.6,49,0.00,CLR,,0.02,WeatherDisplay:10.37,2013-04-26 15:17:00,
2013-04-26 10:22:00,55.4,36.5,29.08,South,180,24.2,24.2,49,0.00,CLR,,0.02,WeatherDisplay:10.37,2013-04-26 15:22:00,
2013-04-26 10:27:00,55.8,36.4,29.08,WSW,248,19.6,19.6,48,0.00,CLR,,0.02,WeatherDisplay:10.37,2013-04-26 15:27:00,
2013-04-26 10:32:00,55.6,36.2,29.08,SW,225,19.6,19.6,48,0.00,CLR,,0.02,WeatherDisplay:10.37,2013-04-26 15:32:00,
2013-04-26 10:37:00,55.2,35.9,29.08,South,180,25.3,25.3,48,0.01,RA,,0.04,WeatherDisplay:10.37,2013-04-26 15:37:00,
2013-04-26 10:42:00,55.8,36.4,29.09,South,180,17.3,17.3,48,0.01,RA,,0.04,WeatherDisplay:10.37,2013-04-26 15:42:00,
2013-04-26 10:47:00,56.5,37.0,29.08,South,180,15.0,15.0,48,0.01,,,0.04,WeatherDisplay:10.37,2013-04-26 15:47:00,
2013-04-26 10:52:00,57.0,37.0,29.08,SW,225,18.4,18.4,47,0.01,CLR,,0.04,WeatherDisplay:10.37,2013-04-26 15:52:00,
2013-04-26 10:57:00,57.7,37.1,29.08,South,180,17.3,17.3,46,0.01,CLR,,0.04,WeatherDisplay:10.37,2013-04-26 15:57:00,
2013-04-26 11:02:00,58.3,37.0,29.08,South,180,18.4,18.4,45,0.01,CLR,,0.04,WeatherDisplay:10.37,2013-04-26 16:02:00,
2013-04-26 11:07:00,59.0,37.1,29.08,South,180,21.9,21.9,44,0.01,CLR,,0.04,WeatherDisplay:10.37,2013-04-26 16:07:00,
2013-04-26 11:12:00,59.2,37.3,29.08,South,180,16.1,16.1,44,0.01,CLR,,0.04,WeatherDisplay:10.37,2013-04-26 16:12:00,
2013-04-26 11:17:00,59.7,38.3,29.08,South,180,20.7,20.7,45,0.01,CLR,,0.04,WeatherDisplay:10.37,2013-04-26 16:17:00,
2013-04-26 11:22:00,59.9,36.7,29.08,South,180,26.5,26.5,42,0.01,CLR,,0.04,WeatherDisplay:10.37,2013-04-26 16:22:00,
2013-04-26 11:27:00,59.9,37.3,29.08,South,180,20.7,20.7,43,0.01,CLR,,0.04,WeatherDisplay:10.37,2013-04-26 16:27:00,
2013-04-26 11:32:00,60.4,38.4,29.08,West,270,13.8,13.8,44,0.01,CLR,,0.04,WeatherDisplay:10.37,2013-04-26 16:32:00,
2013-04-26 11:37:00,60.8,38.1,29.08,SW,225,20.7,20.7,43,0.00,CLR,,0.04,WeatherDisplay:10.37,2013-04-26 16:37:00,
2013-04-26 11:42:00,61.0,38.3,29.08,SW,225,17.3,17.3,43,0.00,CLR,,0.04,WeatherDisplay:10.37,2013-04-26 16:42:00,
2013-04-26 11:47:00,61.2,37.9,29.08,SW,225,13.8,13.8,42,0.00,CLR,,0.04,WeatherDisplay:10.37,2013-04-26 16:47:00,
2013-04-26 11:52:00,61.3,38.0,29.09,SW,225,13.8,13.8,42,0.00,CLR,,0.04,WeatherDisplay:10.37,2013-04-26 16:52:00,
2013-04-26 11:57:00,61.5,37.6,29.08,South,180,18.4,18.4,41,0.00,CLR,,0.04,WeatherDisplay:10.37,2013-04-26 16:57:00,
2013-04-26 12:02:00,61.5,38.2,29.08,South,180,20.7,20.7,42,0.00,CLR,,0.04,WeatherDisplay:10.37,2013-04-26 17:02:00,
2013-04-26 12:07:00,61.7,37.7,29.08,South,180,20.7,20.7,41,0.00,CLR,,0.04,WeatherDisplay:10.37,2013-04-26 17:07:00,
2013-04-26 12:12:00,61.9,37.9,29.08,SW,225,18.4,18.4,41,0.00,CLR,,0.04,WeatherDisplay:10.37,2013-04-26 17:12:00,
2013-04-26 12:17:00,62.2,38.2,29.08,SW,225,18.4,18.4,41,0.00,CLR,,0.04,WeatherDisplay:10.37,2013-04-26 17:17:00,
2013-04-26 12:22:00,62.6,38.6,29.08,South,180,15.0,15.0,41,0.00,CLR,,0.04,WeatherDisplay:10.37,2013-04-26 17:22:00,
2013-04-26 12:27:00,62.8,38.7,29.08,SW,225,13.8,13.8,41,0.00,CLR,,0.04,WeatherDisplay:10.37,2013-04-26 17:27:00,
2013-04-26 12:32:00,63.1,39.0,29.08,South,180,15.0,15.0,41,0.00,CLR,,0.04,WeatherDisplay:10.37,2013-04-26 17:32:00,
2013-04-26 12:37:00,63.1,39.0,29.08,SW,225,17.3,17.3,41,0.00,CLR,,0.04,WeatherDisplay:10.37,2013-04-26 17:37:00,
2013-04-26 12:42:00,63.0,38.2,29.08,South,180,17.3,17.3,40,0.00,CLR,,0.04,WeatherDisplay:10.37,2013-04-26 17:42:00,
2013-04-26 12:47:00,63.1,38.4,29.08,South,180,20.7,20.7,40,0.00,CLR,,0.04,WeatherDisplay:10.37,2013-04-26 17:47:00,
2013-04-26 12:52:00,63.3,38.6,29.07,South,180,20.7,20.7,40,0.00,CLR,,0.04,WeatherDisplay:10.37,2013-04-26 17:52:00,
2013-04-26 12:57:00,63.5,39.4,29.08,SW,225,17.3,17.3,41,0.00,CLR,,0.04,WeatherDisplay:10.37,2013-04-26 17:57:00,
2013-04-26 13:02:00,64.6,40.3,29.07,SW,225,12.7,12.7,41,0.00,CLR,,0.04,WeatherDisplay:10.37,2013-04-26 18:02:00,
2013-04-26 13:07:00,64.9,40.7,29.07,SW,225,8.1,8.1,41,0.00,CLR,,0.04,WeatherDisplay:10.37,2013-04-26 18:07:00,
2013-04-26 13:12:00,65.1,40.2,29.08,SW,225,19.6,19.6,40,0.00,CLR,,0.04,WeatherDisplay:10.37,2013-04-26 18:12:00,
2013-04-26 13:17:00,64.0,39.2,29.07,SW,225,13.8,13.8,40,0.00,CLR,,0.04,WeatherDisplay:10.37,2013-04-26 18:17:00,
2013-04-26 13:22:00,64.2,40.6,29.07,SW,225,12.7,12.7,42,0.00,CLR,,0.04,WeatherDisplay:10.37,2013-04-26 18:22:00,
2013-04-26 13:27:00,64.8,39.9,29.07,West,270,10.4,10.4,40,0.00,CLR,,0.04,WeatherDisplay:10.37,2013-04-26 18:27:00,
2013-04-26 13:32:00,63.3,39.8,29.07,SSW,202,6.9,6.9,42,0.00,CLR,,0.04,WeatherDisplay:10.37,2013-04-26 18:32:00,
2013-04-26 13:37:00,64.9,40.0,29.06,SW,225,9.2,9.2,40,0.00,CLR,,0.04,WeatherDisplay:10.37,2013-04-26 18:37:00,
2013-04-26 13:42:00,65.7,39.3,29.06,SW,225,9.2,9.2,38,0.00,CLR,,0.04,WeatherDisplay:10.37,2013-04-26 18:42:00,
2013-04-26 13:47:00,65.8,39.5,29.06,WSW,248,15.0,15.0,38,0.00,CLR,,0.04,WeatherDisplay:10.37,2013-04-26 18:47:00,
2013-04-26 13:52:00,65.7,40.0,29.06,West,270,10.4,10.4,39,0.00,CLR,,0.04,WeatherDisplay:10.37,2013-04-26 18:52:00,
2013-04-26 13:57:00,65.3,39.0,29.06,West,270,15.0,15.0,38,0.00,CLR,,0.04,WeatherDisplay:10.37,2013-04-26 18:57:00,
2013-04-26 14:02:00,63.9,39.1,29.06,West,270,12.7,12.7,40,0.00,CLR,,0.04,WeatherDisplay:10.37,2013-04-26 19:02:00,
2013-04-26 14:07:00,64.6,39.7,29.06,SW,225,8.1,8.1,40,0.00,CLR,,0.04,WeatherDisplay:10.37,2013-04-26 19:07:00,
2013-04-26 14:12:00,66.7,40.3,29.06,SW,225,17.3,17.3,38,0.00,CLR,,0.04,WeatherDisplay:10.37,2013-04-26 19:12:00,
2013-04-26 14:17:00,66.4,40.0,29.06,NW,315,12.7,12.7,38,0.00,CLR,,0.04,WeatherDisplay:10.37,2013-04-26 19:17:00,
2013-04-26 14:22:00,65.5,39.9,29.06,South,180,16.1,16.1,39,0.00,CLR,,0.04,WeatherDisplay:10.37,2013-04-26 19:22:00,
2013-04-26 14:27:00,66.4,41.3,29.06,SW,225,27.6,27.6,40,0.01,RA,,0.05,WeatherDisplay:10.37,2013-04-26 19:27:00,
2013-04-26 14:32:00,66.0,39.7,29.06,SW,225,10.4,10.4,38,0.01,RA,,0.05,WeatherDisplay:10.37,2013-04-26 19:32:00,
2013-04-26 14:37:00,65.7,40.7,29.06,SW,225,13.8,13.8,40,0.01,,,0.05,WeatherDisplay:10.37,2013-04-26 19:37:00,
2013-04-26 14:42:00,67.1,40.6,29.06,SW,225,10.4,10.4,38,0.01,CLR,,0.05,WeatherDisplay:10.37,2013-04-26 19:42:00,
2013-04-26 14:47:00,66.0,40.3,29.06,West,270,13.8,13.8,39,0.01,CLR,,0.05,WeatherDisplay:10.37,2013-04-26 19:47:00,
2013-04-26 14:52:00,67.3,41.5,29.06,South,180,8.1,8.1,39,0.01,CLR,,0.05,WeatherDisplay:10.37,2013-04-26 19:52:00,
2013-04-26 14:57:00,67.6,39.7,29.06,NW,315,13.8,13.8,36,0.01,CLR,,0.05,WeatherDisplay:10.37,2013-04-26 19:57:00,
2013-04-26 15:02:00,65.8,39.5,29.06,NW,315,13.8,13.8,38,0.01,CLR,,0.05,WeatherDisplay:10.37,2013-04-26 20:02:00,
2013-04-26 15:07:00,66.7,39.6,29.06,SW,225,15.0,15.0,37,0.01,CLR,,0.05,WeatherDisplay:10.37,2013-04-26 20:07:00,
2013-04-26 15:12:00,67.8,40.6,29.06,West,270,12.7,12.7,37,0.01,CLR,,0.05,WeatherDisplay:10.37,2013-04-26 20:12:00,
2013-04-26 15:17:00,68.4,41.1,29.06,South,180,10.4,10.4,37,0.01,CLR,,0.05,WeatherDisplay:10.37,2013-04-26 20:17:00,
2013-04-26 15:22:00,68.7,40.7,29.06,West,270,12.7,12.7,36,0.01,CLR,,0.05,WeatherDisplay:10.37,2013-04-26 20:22:00,
2013-04-26 15:27:00,67.6,41.1,29.06,SW,225,18.4,18.4,38,0.00,CLR,,0.05,WeatherDisplay:10.37,2013-04-26 20:27:00,
2013-04-26 15:32:00,68.5,41.2,29.05,West,270,8.1,8.1,37,0.00,CLR,,0.05,WeatherDisplay:10.37,2013-04-26 20:32:00,
2013-04-26 15:37:00,68.4,40.4,29.06,NW,315,12.7,12.7,36,0.00,CLR,,0.05,WeatherDisplay:10.37,2013-04-26 20:37:00,
2013-04-26 15:42:00,67.5,39.6,29.05,SW,225,12.7,12.7,36,0.00,CLR,,0.05,WeatherDisplay:10.37,2013-04-26 20:42:00,
2013-04-26 15:47:00,67.5,41.0,29.05,West,270,10.4,10.4,38,0.00,CLR,,0.05,WeatherDisplay:10.37,2013-04-26 20:47:00,
2013-04-26 15:52:00,68.7,39.9,29.05,SW,225,15.0,15.0,35,0.00,CLR,,0.05,WeatherDisplay:10.37,2013-04-26 20:52:00,
2013-04-26 15:57:00,69.3,39.7,29.06,SW,225,11.5,11.5,34,0.00,CLR,,0.05,WeatherDisplay:10.37,2013-04-26 20:57:00,
2013-04-26 16:02:00,67.8,39.2,29.05,SW,225,17.3,17.3,35,0.00,CLR,,0.05,WeatherDisplay:10.37,2013-04-26 21:02:00,
2013-04-26 16:07:00,67.6,39.7,29.05,SW,225,15.0,15.0,36,0.00,CLR,,0.05,WeatherDisplay:10.37,2013-04-26 21:07:00,
2013-04-26 16:12:00,67.1,39.2,29.05,WSW,248,16.1,16.1,36,0.00,CLR,,0.05,WeatherDisplay:10.37,2013-04-26 21:12:00,
2013-04-26 16:17:00,67.6,40.4,29.05,SW,225,12.7,12.7,37,0.00,CLR,,0.05,WeatherDisplay:10.37,2013-04-26 21:17:00,
2013-04-26 16:22:00,69.1,39.5,29.05,West,270,11.5,11.5,34,0.00,CLR,,0.05,WeatherDisplay:10.37,2013-04-26 21:22:00,
2013-04-26 16:27:00,69.3,40.4,29.05,SW,225,10.4,10.4,35,0.00,CLR,,0.05,WeatherDisplay:10.37,2013-04-26 21:27:00,
2013-04-26 16:32:00,67.5,39.6,29.05,West,270,13.8,13.8,36,0.00,CLR,,0.05,WeatherDisplay:10.37,2013-04-26 21:32:00,
2013-04-26 16:37:00,67.8,39.9,29.05,SW,225,15.0,15.0,36,0.00,CLR,,0.05,WeatherDisplay:10.37,2013-04-26 21:37:00,
2013-04-26 16:42:00,68.9,40.8,29.05,SW,225,5.8,5.8,36,0.00,CLR,,0.05,WeatherDisplay:10.37,2013-04-26 21:42:00,
2013-04-26 16:47:00,69.4,39.8,29.05,SW,225,16.1,16.1,34,0.00,CLR,,0.05,WeatherDisplay:10.37,2013-04-26 21:47:00,
2013-04-26 16:52:00,68.2,39.5,29.05,SW,225,10.4,10.4,35,0.00,CLR,,0.05,WeatherDisplay:10.37,2013-04-26 21:52:00,
2013-04-26 16:57:00,67.8,39.2,29.05,SW,225,16.1,16.1,35,0.00,CLR,,0.05,WeatherDisplay:10.37,2013-04-26 21:57:00,
2013-04-26 17:02:00,67.6,39.0,29.06,SW,225,13.8,13.8,35,0.00,CLR,,0.05,WeatherDisplay:10.37,2013-04-26 22:02:00,
2013-04-26 17:07:00,66.9,39.1,29.06,SW,225,15.0,15.0,36,0.00,CLR,,0.05,WeatherDisplay:10.37,2013-04-26 22:07:00,
2013-04-26 17:12:00,67.1,39.9,29.05,West,270,11.5,11.5,37,0.00,CLR,,0.05,WeatherDisplay:10.37,2013-04-26 22:12:00,
2013-04-26 17:17:00,69.3,40.4,29.06,West,270,15.0,15.0,35,0.00,CLR,,0.05,WeatherDisplay:10.37,2013-04-26 22:17:00,
2013-04-26 17:22:00,68.7,39.2,29.06,West,270,8.1,8.1,34,0.00,CLR,,0.05,WeatherDisplay:10.37,2013-04-26 22:22:00,
2013-04-26 17:27:00,67.8,39.2,29.06,NW,315,15.0,15.0,35,0.00,CLR,,0.05,WeatherDisplay:10.37,2013-04-26 22:27:00,
2013-04-26 17:32:00,67.5,40.3,29.06,West,270,10.4,10.4,37,0.00,CLR,,0.05,WeatherDisplay:10.37,2013-04-26 22:32:00,
2013-04-26 17:37:00,67.6,39.7,29.06,WSW,248,11.5,11.5,36,0.00,CLR,,0.05,WeatherDisplay:10.37,2013-04-26 22:37:00,
2013-04-26 17:42:00,66.7,39.6,29.06,West,270,9.2,9.2,37,0.00,CLR,,0.05,WeatherDisplay:10.37,2013-04-26 22:42:00,
2013-04-26 17:47:00,69.1,40.3,29.06,West,270,8.1,8.1,35,0.00,CLR,,0.05,WeatherDisplay:10.37,2013-04-26 22:47:00,
2013-04-26 17:52:00,68.2,39.5,29.06,West,270,9.2,9.2,35,0.00,CLR,,0.05,WeatherDisplay:10.37,2013-04-26 22:52:00,
2013-04-26 17:57:00,68.2,40.9,29.06,West,270,10.4,10.4,37,0.00,CLR,,0.05,WeatherDisplay:10.37,2013-04-26 22:57:00,
2013-04-26 18:02:00,69.4,39.8,29.06,West,270,9.2,9.2,34,0.00,CLR,,0.05,WeatherDisplay:10.37,2013-04-26 23:02:00,
2013-04-26 18:07:00,69.1,39.5,29.07,West,270,8.1,8.1,34,0.00,CLR,,0.05,WeatherDisplay:10.37,2013-04-26 23:07:00,
2013-04-26 18:12:00,68.0,40.0,29.07,SW,225,6.9,6.9,36,0.00,CLR,,0.05,WeatherDisplay:10.37,2013-04-26 23:12:00,
2013-04-26 18:17:00,68.7,39.2,29.07,NW,315,9.2,9.2,34,0.00,CLR,,0.05,WeatherDisplay:10.37,2013-04-26 23:17:00,
2013-04-26 18:22:00,68.9,39.4,29.07,NW,315,4.6,4.6,34,0.00,CLR,,0.05,WeatherDisplay:10.37,2013-04-26 23:22:00,
2013-04-26 18:27:00,69.6,41.5,29.07,West,270,11.5,11.5,36,0.00,CLR,,0.05,WeatherDisplay:10.37,2013-04-26 23:27:00,
2013-04-26 18:32:00,70.3,39.9,29.07,West,270,5.8,5.8,33,0.00,CLR,,0.05,WeatherDisplay:10.37,2013-04-26 23:32:00,
2013-04-26 18:37:00,69.8,41.6,29.07,NW,315,5.8,5.8,36,0.00,CLR,,0.05,WeatherDisplay:10.37,2013-04-26 23:37:00,
2013-04-26 18:42:00,70.5,43.7,29.08,NW,315,5.8,5.8,38,0.00,CLR,,0.05,WeatherDisplay:10.37,2013-04-26 23:42:00,
2013-04-26 18:47:00,70.5,43.0,29.08,NW,315,8.1,8.1,37,0.00,CLR,,0.05,WeatherDisplay:10.37,2013-04-26 23:47:00,
2013-04-26 18:52:00,70.3,42.8,29.08,NW,315,11.5,11.5,37,0.00,CLR,,0.05,WeatherDisplay:10.37,2013-04-26 23:52:00,
2013-04-26 19:06:00,69.6,43.6,29.08,West,270,6.9,6.9,39,0.00,CLR,,0.05,WeatherDisplay:10.37,2013-04-27 00:06:00,
2013-04-26 19:11:00,69.4,44.1,29.08,North,0,6.9,6.9,40,0.00,CLR,,0.05,WeatherDisplay:10.37,2013-04-27 00:11:00,
2013-04-26 19:16:00,69.4,43.4,29.08,NW,315,5.8,5.8,39,0.00,CLR,,0.05,WeatherDisplay:10.37,2013-04-27 00:16:00,
2013-04-26 19:21:00,69.1,43.7,29.08,NW,315,5.8,5.8,40,0.00,CLR,,0.05,WeatherDisplay:10.37,2013-04-27 00:21:00,
2013-04-26 19:26:00,68.9,43.6,29.08,NW,315,5.8,5.8,40,0.00,CLR,,0.05,WeatherDisplay:10.37,2013-04-27 00:26:00,
2013-04-26 19:31:00,68.7,43.4,29.08,NW,315,6.9,6.9,40,0.00,CLR,,0.05,WeatherDisplay:10.37,2013-04-27 00:31:00,
2013-04-26 19:36:00,68.0,43.4,29.09,NW,315,5.8,5.8,41,0.00,CLR,,0.05,WeatherDisplay:10.37,2013-04-27 00:36:00,
2013-04-26 19:41:00,67.3,43.4,29.09,NW,315,5.8,5.8,42,0.00,CLR,,0.05,WeatherDisplay:10.37,2013-04-27 00:41:00,
2013-04-26 19:46:00,66.6,43.4,29.09,NW,315,4.6,4.6,43,0.00,CLR,,0.05,WeatherDisplay:10.37,2013-04-27 00:46:00,
2013-04-26 19:51:00,65.7,43.1,29.09,North,0,4.6,4.6,44,0.00,CLR,,0.05,WeatherDisplay:10.37,2013-04-27 00:51:00,
2013-04-26 19:56:00,65.1,43.2,29.09,NW,315,5.8,5.8,45,0.00,CLR,,0.05,WeatherDisplay:10.37,2013-04-27 00:56:00,
2013-04-26 20:01:00,64.8,43.5,29.09,NNW,338,3.5,3.5,46,0.00,CLR,,0.05,WeatherDisplay:10.37,2013-04-27 01:01:00,
2013-04-26 20:06:00,64.0,43.4,29.09,North,0,3.5,3.5,47,0.00,CLR,,0.05,WeatherDisplay:10.37,2013-04-27 01:06:00,
2013-04-26 20:11:00,63.5,44.0,29.10,North,0,3.5,3.5,49,0.00,CLR,,0.05,WeatherDisplay:10.37,2013-04-27 01:11:00,
2013-04-26 20:16:00,63.0,44.0,29.10,NW,315,3.5,3.5,50,0.00,CLR,,0.05,WeatherDisplay:10.37,2013-04-27 01:16:00,
2013-04-26 20:21:00,62.4,44.0,29.10,North,0,2.3,2.3,51,0.00,CLR,,0.05,WeatherDisplay:10.37,2013-04-27 01:21:00,
2013-04-26 20:26:00,61.7,43.9,29.10,North,0,1.1,0.0,52,0.00,CLR,,0.05,WeatherDisplay:10.37,2013-04-27 01:26:00,
2013-04-26 20:31:00,61.2,43.9,29.10,North,0,1.1,0.0,53,0.00,CLR,,0.05,WeatherDisplay:10.37,2013-04-27 01:31:00,
2013-04-26 20:36:00,60.1,43.4,29.11,North,0,1.1,0.0,54,0.00,CLR,,0.05,WeatherDisplay:10.37,2013-04-27 01:36:00,
2013-04-26 20:41:00,59.4,43.7,29.10,NE,45,1.1,1.1,56,0.00,CLR,,0.05,WeatherDisplay:10.37,2013-04-27 01:41:00,
2013-04-26 20:46:00,58.6,43.9,29.11,South,180,1.1,0.0,58,0.00,CLR,,0.05,WeatherDisplay:10.37,2013-04-27 01:46:00,
2013-04-26 20:51:00,56.1,43.3,29.11,SE,135,3.5,3.5,62,0.00,CLR,,0.05,WeatherDisplay:10.37,2013-04-27 01:51:00,
2013-04-26 20:56:00,56.8,44.8,29.11,SE,135,3.5,3.5,64,0.00,CLR,,0.05,WeatherDisplay:10.37,2013-04-27 01:56:00,
2013-04-26 21:01:00,56.7,44.6,29.12,SE,135,3.5,3.5,64,0.00,CLR,,0.05,WeatherDisplay:10.37,2013-04-27 02:01:00,
2013-04-26 21:06:00,56.5,44.9,29.12,SE,135,3.5,3.5,65,0.00,CLR,,0.05,WeatherDisplay:10.37,2013-04-27 02:06:00,
2013-04-26 21:11:00,53.8,43.1,29.12,SE,135,3.5,3.5,67,0.00,CLR,,0.05,WeatherDisplay:10.37,2013-04-27 02:11:00,
2013-04-26 21:16:00,53.6,42.9,29.11,SE,135,3.5,3.5,67,0.00,CLR,,0.05,WeatherDisplay:10.37,2013-04-27 02:16:00,
2013-04-26 21:21:00,53.6,42.9,29.12,SE,135,3.5,3.5,67,0.00,CLR,,0.05,WeatherDisplay:10.37,2013-04-27 02:21:00,
2013-04-26 21:26:00,51.8,42.7,29.12,SE,135,4.6,4.6,71,0.00,CLR,,0.05,WeatherDisplay:10.37,2013-04-27 02:26:00,
2013-04-26 21:31:00,51.4,42.7,29.12,SE,135,3.5,3.5,72,0.00,CLR,,0.05,WeatherDisplay:10.37,2013-04-27 02:31:00,
2013-04-26 21:36:00,51.1,42.7,29.12,East,90,3.5,3.5,73,0.00,CLR,,0.05,WeatherDisplay:10.37,2013-04-27 02:36:00,
2013-04-26 21:41:00,51.1,42.4,29.12,SE,135,1.1,1.1,72,0.00,CLR,,0.05,WeatherDisplay:10.37,2013-04-27 02:41:00,
2013-04-26 21:46:00,51.3,42.5,29.13,SE,135,2.3,2.3,72,0.00,CLR,,0.05,WeatherDisplay:10.37,2013-04-27 02:46:00,
2013-04-26 21:51:00,50.9,42.6,29.13,SE,135,3.5,3.5,73,0.00,CLR,,0.05,WeatherDisplay:10.37,2013-04-27 02:51:00,
2013-04-26 21:56:00,50.7,42.4,29.13,SE,135,3.5,3.5,73,0.00,CLR,,0.05,WeatherDisplay:10.37,2013-04-27 02:56:00,
2013-04-26 22:01:00,50.7,42.4,29.13,SE,135,3.5,3.5,73,0.00,CLR,,0.05,WeatherDisplay:10.37,2013-04-27 03:01:00,
2013-04-26 22:06:00,50.7,42.0,29.13,East,90,1.1,0.0,72,0.00,CLR,,0.05,WeatherDisplay:10.37,2013-04-27 03:06:00,
2013-04-26 22:11:00,50.4,42.0,29.13,NE,45,1.1,0.0,73,0.00,CLR,,0.05,WeatherDisplay:10.37,2013-04-27 03:11:00,
2013-04-26 22:16:00,50.2,41.9,29.13,NE,45,1.1,0.0,73,0.00,CLR,,0.05,WeatherDisplay:10.37,2013-04-27 03:16:00,
2013-04-26 22:21:00,50.0,42.0,29.14,NE,45,1.1,0.0,74,0.00,CLR,,0.05,WeatherDisplay:10.37,2013-04-27 03:21:00,
2013-04-26 22:26:00,49.6,41.7,29.14,NE,45,1.1,0.0,74,0.00,CLR,,0.05,WeatherDisplay:10.37,2013-04-27 03:26:00,
2013-04-26 22:31:00,49.6,42.0,29.14,North,0,1.1,1.1,75,0.00,CLR,,0.05,WeatherDisplay:10.37,2013-04-27 03:31:00,
2013-04-26 22:36:00,49.3,41.7,29.14,North,0,1.1,1.1,75,0.00,CLR,,0.05,WeatherDisplay:10.37,2013-04-27 03:36:00,
2013-04-26 22:41:00,49.1,41.9,29.14,North,0,1.1,1.1,76,0.00,CLR,,0.05,WeatherDisplay:10.37,2013-04-27 03:41:00,
2013-04-26 22:46:00,48.7,41.8,29.14,North,0,1.6,1.6,77,0.00,CLR,,0.05,WeatherDisplay:10.37,2013-04-27 03:46:00,
2013-04-26 22:51:00,48.4,41.5,29.14,North,0,1.1,1.1,77,0.00,CLR,,0.05,WeatherDisplay:10.37,2013-04-27 03:51:00,
2013-04-26 22:56:00,48.2,42.0,29.14,North,0,2.3,2.3,79,0.00,CLR,,0.05,WeatherDisplay:10.37,2013-04-27 03:56:00,
2013-04-26 23:01:00,48.2,42.0,29.14,North,0,1.1,1.1,79,0.00,CLR,,0.05,WeatherDisplay:10.37,2013-04-27 04:01:00,
2013-04-26 23:06:00,47.8,41.6,29.14,NE,45,1.1,0.0,79,0.00,CLR,,0.05,WeatherDisplay:10.37,2013-04-27 04:06:00,
2013-04-26 23:11:00,47.5,41.0,29.15,NE,45,1.1,0.0,78,0.00,CLR,,0.05,WeatherDisplay:10.37,2013-04-27 04:11:00,
2013-04-26 23:16:00,47.1,40.6,29.14,NE,45,0.0,0.0,78,0.00,CLR,,0.05,WeatherDisplay:10.37,2013-04-27 04:16:00,
2013-04-26 23:21:00,46.2,40.4,29.16,South,180,3.5,3.8,80,0.00,CLR,,0.05,WeatherDisplay:10.37,2013-04-27 04:21:00,
2013-04-26 23:26:00,43.3,38.8,29.16,NE,45,10.4,10.4,84,0.00,CLR,,0.05,WeatherDisplay:10.37,2013-04-27 04:26:00,
2013-04-26 23:31:00,42.8,38.9,29.16,East,90,3.1,3.1,86,0.00,CLR,,0.05,WeatherDisplay:10.37,2013-04-27 04:31:00,
2013-04-26 23:36:00,43.7,40.1,29.15,SE,135,1.1,1.1,87,0.00,CLR,,0.05,WeatherDisplay:10.37,2013-04-27 04:36:00,
2013-04-26 23:41:00,44.6,41.3,29.16,SE,135,4.6,4.6,88,0.00,CLR,,0.05,WeatherDisplay:10.37,2013-04-27 04:41:00,
2013-04-26 23:46:00,45.3,41.7,29.15,East,90,1.1,1.1,87,0.00,CLR,,0.05,WeatherDisplay:10.37,2013-04-27 04:46:00,
2013-04-26 23:51:00,45.3,41.7,29.16,East,90,1.1,1.1,87,0.00,CLR,,0.05,WeatherDisplay:10.37,2013-04-27 04:51:00,
2013-04-26 23:56:00,46.4,42.4,29.16,East,90,1.6,1.6,86,0.00,CLR,,0.05,WeatherDisplay:10.37,2013-04-27 04:56:00,